createdAt,value
2022-11-10T00:01:36.040Z,19.30
2022-11-10T00:04:05.042Z,19.43
2022-11-10T00:06:34.852Z,15.40
2022-11-10T00:09:01.788Z,26.40
2022-11-10T00:11:29.702Z,21.80
2022-11-10T00:14:15.447Z,19.17
2022-11-10T00:17:01.017Z,19.80
2022-11-10T00:19:28.829Z,22.43
2022-11-10T00:21:55.875Z,25.90
2022-11-10T00:24:23.900Z,19.20
2022-11-10T00:26:51.216Z,22.27
2022-11-10T00:29:18.223Z,25.70
2022-11-10T00:31:44.910Z,27.50
2022-11-10T00:34:16.668Z,26.47
2022-11-10T00:36:44.209Z,26.93
2022-11-10T00:39:11.695Z,20.73
2022-11-10T00:41:38.488Z,35.50
2022-11-10T00:44:05.218Z,26.47
2022-11-10T00:46:31.891Z,25.10
2022-11-10T00:48:58.720Z,28.43
2022-11-10T00:51:28.184Z,23.73
2022-11-10T00:53:55.504Z,26.40
2022-11-10T00:56:23.124Z,19.43
2022-11-10T00:58:50.283Z,28.73
2022-11-10T01:01:21.183Z,26.03
2022-11-10T01:03:48.041Z,30.50
2022-11-10T01:06:17.095Z,24.07
2022-11-10T01:08:44.443Z,28.20
2022-11-10T01:11:22.353Z,29.10
2022-11-10T01:13:51.337Z,23.90
2022-11-10T01:16:23.726Z,29.03
2022-11-10T01:18:52.058Z,21.03
2022-11-10T01:21:19.606Z,23.83
2022-11-10T01:23:46.987Z,21.97
2022-11-10T01:26:14.403Z,26.03
2022-11-10T01:28:41.280Z,26.63
2022-11-10T01:31:11.822Z,26.47
2022-11-10T01:33:39.313Z,39.40
2022-11-10T01:36:07.540Z,27.90
2022-11-10T01:38:36.561Z,27.97
2022-11-10T01:41:08.952Z,24.07
2022-11-10T01:43:36.041Z,27.63
2022-11-10T01:46:09.505Z,30.90
2022-11-10T01:48:45.331Z,27.57
2022-11-10T01:51:23.958Z,29.47
2022-11-10T01:53:56.239Z,24.77
2022-11-10T01:56:26.511Z,33.33
2022-11-10T01:58:58.646Z,24.47
2022-11-10T02:01:25.876Z,32.47
2022-11-10T02:04:04.033Z,35.33
2022-11-10T02:06:35.599Z,19.87
2022-11-10T02:09:02.946Z,29.00
2022-11-10T02:11:32.014Z,40.20
2022-11-10T02:14:00.700Z,42.23
2022-11-10T02:16:27.964Z,34.07
2022-11-10T02:18:54.749Z,31.07
2022-11-10T02:21:21.535Z,38.77
2022-11-10T02:23:53.319Z,30.37
2022-11-10T02:26:27.892Z,31.70
2022-11-10T02:28:54.604Z,40.27
2022-11-10T02:31:21.472Z,34.07
2022-11-10T02:33:48.285Z,33.20
2022-11-10T02:36:15.015Z,35.40
2022-11-10T02:38:41.717Z,39.27
2022-11-10T02:41:08.450Z,27.60
2022-11-10T02:43:35.431Z,34.87
2022-11-10T02:46:02.188Z,28.60
2022-11-10T02:48:28.938Z,39.30
2022-11-10T02:50:55.674Z,36.30
2022-11-10T02:53:22.676Z,36.50
2022-11-10T02:55:49.732Z,33.30
2022-11-10T02:58:16.512Z,40.27
2022-11-10T03:00:43.209Z,36.87
2022-11-10T03:03:09.869Z,35.13
2022-11-10T03:05:36.533Z,39.87
2022-11-10T03:08:04.675Z,37.00
2022-11-10T03:10:31.935Z,35.90
2022-11-10T03:13:01.558Z,35.03
2022-11-10T03:15:29.512Z,37.97
2022-11-10T03:17:56.658Z,42.27
2022-11-10T03:20:23.552Z,40.43
2022-11-10T03:22:50.254Z,39.10
2022-11-10T03:25:17.083Z,42.13
2022-11-10T03:27:43.929Z,37.70
2022-11-10T03:30:11.093Z,37.10
2022-11-10T03:32:37.820Z,36.77
2022-11-10T03:35:04.885Z,42.50
2022-11-10T03:37:31.605Z,38.30
2022-11-10T03:39:58.293Z,34.50
2022-11-10T03:42:24.990Z,39.67
2022-11-10T03:44:51.740Z,34.53
2022-11-10T03:47:18.518Z,37.87
2022-11-10T03:49:45.308Z,41.43
2022-11-10T03:52:12.035Z,34.80
2022-11-10T03:54:38.711Z,36.87
2022-11-10T03:57:05.470Z,34.87
2022-11-10T03:59:32.339Z,35.07
2022-11-10T04:01:59.067Z,30.63
2022-11-10T04:04:44.442Z,35.00
2022-11-10T04:07:32.958Z,29.27
2022-11-10T04:09:59.696Z,26.60
2022-11-10T04:12:45.030Z,31.33
2022-11-10T04:15:31.183Z,29.33
2022-11-10T04:18:17.889Z,39.57
2022-11-10T04:20:44.934Z,35.10
2022-11-10T04:23:27.238Z,28.83
2022-11-10T04:26:13.231Z,26.27
2022-11-10T04:28:40.386Z,31.87
2022-11-10T04:31:07.637Z,30.37
2022-11-10T04:33:34.988Z,32.37
2022-11-10T04:36:01.745Z,30.70
2022-11-10T04:38:28.479Z,35.00
2022-11-10T04:40:55.387Z,25.93
2022-11-10T04:43:22.832Z,37.13
2022-11-10T04:45:50.233Z,32.60
2022-11-10T04:48:16.878Z,26.20
2022-11-10T04:50:43.628Z,31.00
2022-11-10T04:53:10.733Z,28.53
2022-11-10T04:55:42.561Z,26.37
2022-11-10T04:58:09.665Z,30.93
2022-11-10T05:00:36.971Z,26.37
2022-11-10T05:03:06.608Z,25.90
2022-11-10T05:05:33.417Z,29.63
2022-11-10T05:08:00.405Z,34.37
2022-11-10T05:10:27.545Z,31.27
2022-11-10T05:12:58.104Z,35.03
2022-11-10T05:15:25.467Z,31.57
2022-11-10T05:17:53.635Z,28.23
2022-11-10T05:20:22.269Z,28.47
2022-11-10T05:23:08.825Z,34.60
2022-11-10T05:25:38.491Z,29.23
2022-11-10T05:28:07.609Z,26.50
2022-11-10T05:30:35.528Z,32.93
2022-11-10T05:33:02.693Z,32.17
2022-11-10T05:35:29.866Z,30.63
2022-11-10T05:37:56.608Z,33.37
2022-11-10T05:40:23.492Z,37.47
2022-11-10T05:42:54.223Z,30.57
2022-11-10T05:45:23.409Z,32.03
2022-11-10T05:47:51.193Z,29.57
2022-11-10T05:50:19.271Z,30.33
2022-11-10T05:52:53.976Z,38.43
2022-11-10T05:55:27.346Z,36.53
2022-11-10T05:57:56.070Z,38.83
2022-11-10T06:00:25.464Z,44.00
2022-11-10T06:03:00.164Z,32.67
2022-11-10T06:05:31.161Z,34.73
2022-11-10T06:07:58.728Z,32.90
2022-11-10T06:10:27.212Z,39.60
2022-11-10T06:12:54.573Z,35.60
2022-11-10T06:15:21.821Z,39.57
2022-11-10T06:17:48.763Z,39.93
2022-11-10T06:20:17.164Z,40.73
2022-11-10T06:22:45.055Z,37.73
2022-11-10T06:25:12.304Z,33.90
2022-11-10T06:27:43.475Z,40.50
2022-11-10T06:30:11.590Z,42.57
2022-11-10T06:32:41.888Z,37.63
2022-11-10T06:35:14.299Z,38.83
2022-11-10T06:37:41.217Z,34.73
2022-11-10T06:40:15.307Z,36.77
2022-11-10T06:42:42.240Z,37.30
2022-11-10T06:45:09.431Z,41.30
2022-11-10T06:47:38.531Z,33.40
2022-11-10T06:50:05.636Z,34.00
2022-11-10T06:52:32.341Z,31.17
2022-11-10T06:54:59.279Z,33.23
2022-11-10T06:57:26.012Z,33.10
2022-11-10T06:59:52.838Z,30.17
2022-11-10T07:02:19.541Z,34.20
2022-11-10T07:04:46.336Z,32.63
2022-11-10T07:07:13.163Z,29.83
2022-11-10T07:09:39.950Z,32.33
2022-11-10T07:12:06.895Z,36.50
2022-11-10T07:14:33.583Z,30.73
2022-11-10T07:17:00.904Z,28.37
2022-11-10T07:19:27.659Z,25.67
2022-11-10T07:21:54.379Z,34.53
2022-11-10T07:24:21.237Z,27.43
2022-11-10T07:26:47.882Z,28.73
2022-11-10T07:29:14.705Z,32.00
2022-11-10T07:31:41.484Z,23.57
2022-11-10T07:34:09.342Z,32.67
2022-11-10T07:36:36.139Z,28.23
2022-11-10T07:39:02.916Z,29.73
2022-11-10T07:41:29.687Z,23.37
2022-11-10T07:43:56.412Z,22.47
2022-11-10T07:46:23.566Z,26.83
2022-11-10T07:48:50.339Z,24.33
2022-11-10T07:51:17.158Z,19.23
2022-11-10T07:53:44.495Z,21.50
2022-11-10T07:56:11.618Z,19.17
2022-11-10T07:58:38.580Z,19.53
2022-11-10T08:01:05.626Z,25.83
2022-11-10T08:03:32.798Z,24.57
2022-11-10T08:05:59.590Z,21.17
2022-11-10T08:08:29.831Z,22.90
2022-11-10T08:10:57.889Z,25.80
2022-11-10T08:13:25.042Z,23.27
2022-11-10T08:15:51.910Z,19.40
2022-11-10T08:18:24.745Z,22.57
2022-11-10T08:20:52.755Z,19.93
2022-11-10T08:23:19.767Z,23.93
2022-11-10T08:25:53.340Z,27.03
2022-11-10T08:28:20.791Z,20.63
2022-11-10T08:30:50.856Z,21.53
2022-11-10T08:33:19.596Z,21.43
2022-11-10T08:35:48.757Z,17.07
2022-11-10T08:38:23.726Z,18.93
2022-11-10T08:40:50.721Z,23.33
2022-11-10T08:43:18.421Z,18.77
2022-11-10T08:45:46.409Z,26.67
2022-11-10T08:48:18.551Z,16.73
2022-11-10T08:50:46.418Z,21.17
2022-11-10T08:53:15.985Z,17.33
2022-11-10T08:55:46.116Z,17.93
2022-11-10T08:58:16.630Z,19.53
2022-11-10T09:00:44.928Z,22.63
2022-11-10T09:03:20.211Z,25.40
2022-11-10T09:05:51.215Z,24.90
2022-11-10T09:08:20.516Z,20.80
2022-11-10T09:10:51.205Z,18.03
2022-11-10T09:13:26.040Z,18.57
2022-11-10T09:15:57.257Z,20.93
2022-11-10T09:18:24.185Z,21.67
2022-11-10T09:20:51.029Z,14.77
2022-11-10T09:23:19.354Z,17.77
2022-11-10T09:25:52.013Z,18.93
2022-11-10T09:28:22.629Z,17.17
2022-11-10T09:30:50.992Z,17.50
2022-11-10T09:33:18.243Z,19.03
2022-11-10T09:35:47.104Z,18.07
2022-11-10T09:38:13.901Z,14.53
2022-11-10T09:40:48.841Z,22.60
2022-11-10T09:43:28.806Z,24.27
2022-11-10T09:45:58.671Z,22.77
2022-11-10T09:48:41.904Z,20.50
2022-11-10T09:51:18.543Z,17.03
2022-11-10T09:53:56.987Z,17.97
2022-11-10T09:56:34.129Z,16.43
2022-11-10T09:59:03.972Z,14.33
2022-11-10T10:01:51.650Z,20.17
2022-11-10T10:04:55.638Z,19.60
2022-11-10T10:07:37.806Z,15.37
2022-11-10T10:10:19.121Z,18.43
2022-11-10T10:12:54.708Z,16.87
2022-11-10T10:15:44.917Z,18.33
2022-11-10T10:18:32.854Z,13.13
2022-11-10T10:21:38.769Z,14.93
2022-11-10T10:24:15.196Z,17.27
2022-11-10T10:26:53.761Z,23.30
2022-11-10T10:29:24.836Z,13.27
2022-11-10T10:31:53.112Z,13.07
2022-11-10T10:34:27.532Z,15.07
2022-11-10T10:36:54.374Z,17.23
2022-11-10T10:39:30.363Z,19.10
2022-11-10T10:41:57.930Z,16.60
2022-11-10T10:44:24.905Z,14.43
2022-11-10T10:47:00.168Z,13.73
2022-11-10T10:49:29.685Z,22.70
2022-11-10T10:52:04.930Z,17.53
2022-11-10T10:54:33.897Z,18.87
2022-11-10T10:57:23.754Z,16.23
2022-11-10T10:59:51.540Z,18.47
2022-11-10T11:02:26.887Z,13.90
2022-11-10T11:05:18.576Z,16.50
2022-11-10T11:08:17.904Z,21.20
2022-11-10T11:10:46.034Z,17.13
2022-11-10T11:13:15.072Z,14.97
2022-11-10T11:15:41.960Z,18.13
2022-11-10T11:18:17.079Z,17.03
2022-11-10T11:20:52.929Z,18.53
2022-11-10T11:23:22.444Z,18.20
2022-11-10T11:25:51.739Z,13.87
2022-11-10T11:28:48.229Z,15.00
2022-11-10T11:31:43.335Z,16.17
2022-11-10T11:34:38.378Z,17.93
2022-11-10T11:37:32.808Z,11.70
2022-11-10T11:40:34.954Z,19.97
2022-11-10T11:43:23.801Z,13.60
2022-11-10T11:46:22.923Z,13.75
2022-11-10T11:48:57.628Z,15.65
2022-11-10T11:51:46.416Z,17.77
2022-11-10T11:54:54.369Z,18.92
2022-11-10T11:57:46.189Z,17.23
2022-11-10T12:00:18.840Z,16.73
2022-11-10T12:03:08.080Z,12.43
2022-11-10T12:05:49.371Z,16.38
2022-11-10T12:08:28.050Z,18.30
2022-11-10T12:11:09.920Z,16.15
2022-11-10T12:14:14.622Z,16.48
2022-11-10T12:16:46.099Z,13.38
2022-11-10T12:19:38.085Z,17.25
2022-11-10T12:22:13.147Z,12.88
2022-11-10T12:25:12.530Z,13.05
2022-11-10T12:27:47.597Z,13.10
2022-11-10T12:30:17.762Z,18.73
2022-11-10T12:33:07.114Z,15.02
2022-11-10T12:35:42.002Z,14.93
2022-11-10T12:38:17.014Z,12.68
2022-11-10T12:40:49.026Z,14.38
2022-11-10T12:43:23.023Z,14.88
2022-11-10T12:45:56.715Z,12.05
2022-11-10T12:48:25.855Z,12.88
2022-11-10T12:51:03.404Z,14.07
2022-11-10T12:53:33.885Z,12.80
2022-11-10T12:56:07.696Z,14.20
2022-11-10T12:58:34.557Z,14.38
2022-11-10T13:01:04.144Z,14.02
2022-11-10T13:03:34.306Z,12.43
2022-11-10T13:06:04.488Z,14.48
2022-11-10T13:08:52.881Z,15.85
2022-11-10T13:11:32.871Z,9.80
2022-11-10T13:14:02.780Z,15.48
2022-11-10T13:16:41.969Z,14.77
2022-11-10T13:19:10.855Z,13.65
2022-11-10T13:21:52.958Z,10.05
2022-11-10T13:24:30.865Z,10.60
2022-11-10T13:27:05.968Z,13.52
2022-11-10T13:29:55.435Z,11.82
2022-11-10T13:32:28.405Z,10.63
2022-11-10T13:35:16.143Z,13.07
2022-11-10T13:37:50.337Z,19.33
2022-11-10T13:40:20.130Z,12.27
2022-11-10T13:42:59.266Z,11.77
2022-11-10T13:45:34.387Z,13.73
2022-11-10T13:48:11.154Z,12.85
2022-11-10T13:51:20.628Z,11.35
2022-11-10T13:54:15.750Z,20.67
2022-11-10T13:56:57.743Z,14.65
2022-11-10T13:59:30.780Z,12.90
2022-11-10T14:02:39.454Z,17.92
2022-11-10T14:05:28.123Z,10.48
2022-11-10T14:08:14.467Z,8.77
2022-11-10T14:10:56.074Z,13.57
2022-11-10T14:13:32.131Z,11.43
2022-11-10T14:15:59.370Z,11.38
2022-11-10T14:18:30.308Z,10.47
2022-11-10T14:21:00.373Z,12.77
2022-11-10T14:23:51.509Z,11.20
2022-11-10T14:26:43.949Z,8.47
2022-11-10T14:29:37.886Z,13.97
2022-11-10T14:32:26.692Z,18.10
2022-11-10T14:34:55.667Z,9.13
2022-11-10T14:37:25.723Z,16.53
2022-11-10T14:39:58.677Z,9.20
2022-11-10T14:42:36.523Z,9.80
2022-11-10T14:45:21.754Z,15.03
2022-11-10T14:48:17.530Z,13.83
2022-11-10T14:50:44.554Z,10.23
2022-11-10T14:53:33.487Z,12.40
2022-11-10T14:56:02.398Z,9.20
2022-11-10T14:58:37.312Z,11.97
2022-11-10T15:01:06.332Z,10.13
2022-11-10T15:03:41.128Z,11.80
2022-11-10T15:06:11.180Z,8.50
2022-11-10T15:08:39.329Z,7.83
2022-11-10T15:11:06.584Z,11.53
2022-11-10T15:13:42.638Z,9.20
2022-11-10T15:16:36.749Z,13.67
2022-11-10T15:19:29.607Z,9.17
2022-11-10T15:21:56.539Z,8.23
2022-11-10T15:24:25.920Z,8.77
2022-11-10T15:26:52.798Z,9.90
2022-11-10T15:29:22.991Z,15.40
2022-11-10T15:31:52.002Z,16.63
2022-11-10T15:34:44.545Z,14.17
2022-11-10T15:37:30.919Z,10.30
2022-11-10T15:40:32.178Z,9.20
2022-11-10T15:43:28.805Z,10.33
2022-11-10T15:45:58.867Z,8.90
2022-11-10T15:48:29.280Z,8.53
2022-11-10T15:50:58.402Z,10.07
2022-11-10T15:53:28.595Z,9.53
2022-11-10T15:55:55.438Z,11.10
2022-11-10T15:58:23.891Z,8.87
2022-11-10T16:00:51.035Z,7.33
2022-11-10T16:03:20.517Z,11.87
2022-11-10T16:05:48.443Z,8.10
2022-11-10T16:08:19.210Z,12.15
2022-11-10T16:10:48.323Z,6.27
2022-11-10T16:13:18.612Z,9.47
2022-11-10T16:15:45.714Z,9.27
2022-11-10T16:18:14.846Z,8.57
2022-11-10T16:20:42.470Z,7.13
2022-11-10T16:23:09.574Z,7.00
2022-11-10T16:25:36.987Z,9.50
2022-11-10T16:28:05.466Z,10.50
2022-11-10T16:30:33.715Z,9.67
2022-11-10T16:33:00.860Z,8.30
2022-11-10T16:35:28.361Z,8.57
2022-11-10T16:37:55.142Z,8.43
2022-11-10T16:40:24.060Z,10.90
2022-11-10T16:42:51.167Z,10.90
2022-11-10T16:45:21.732Z,9.43
2022-11-10T16:47:54.897Z,8.50
2022-11-10T16:50:30.332Z,8.50
2022-11-10T16:52:57.677Z,10.97
2022-11-10T16:55:28.000Z,7.47
2022-11-10T16:57:57.556Z,10.33
2022-11-10T17:00:24.807Z,6.97
2022-11-10T17:03:06.372Z,9.23
2022-11-10T17:05:35.112Z,7.23
2022-11-10T17:08:03.463Z,8.53
2022-11-10T17:10:30.271Z,8.67
2022-11-10T17:12:56.978Z,10.83
2022-11-10T17:15:24.044Z,13.23
2022-11-10T17:17:52.960Z,10.90
2022-11-10T17:20:25.508Z,8.07
2022-11-10T17:22:52.973Z,7.80
2022-11-10T17:25:30.058Z,9.57
2022-11-10T17:27:56.880Z,5.43
2022-11-10T17:30:23.796Z,6.03
2022-11-10T17:33:04.744Z,9.03
2022-11-10T17:35:37.715Z,10.77
2022-11-10T17:38:10.892Z,7.93
2022-11-10T17:40:37.702Z,7.87
2022-11-10T17:43:04.479Z,8.40
2022-11-10T17:45:31.255Z,9.13
2022-11-10T17:47:58.478Z,9.97
2022-11-10T17:50:25.393Z,10.67
2022-11-10T17:52:52.186Z,11.57
2022-11-10T17:55:27.335Z,7.63
2022-11-10T17:57:59.343Z,9.87
2022-11-10T18:00:26.411Z,10.63
2022-11-10T18:02:55.445Z,11.30
2022-11-10T18:05:22.547Z,7.27
2022-11-10T18:07:51.222Z,9.97
2022-11-10T18:10:18.092Z,9.67
2022-11-10T18:12:45.295Z,6.50
2022-11-10T18:15:16.475Z,10.57
2022-11-10T18:17:43.825Z,10.87
2022-11-10T18:20:14.838Z,7.90
2022-11-10T18:22:42.428Z,11.70
2022-11-10T18:25:10.457Z,7.13
2022-11-10T18:27:37.690Z,10.67
2022-11-10T18:30:08.413Z,13.23
2022-11-10T18:32:35.375Z,8.80
2022-11-10T18:35:02.249Z,7.50
2022-11-10T18:37:28.975Z,7.40
2022-11-10T18:39:55.938Z,9.00
2022-11-10T18:42:23.149Z,13.23
2022-11-10T18:44:51.986Z,8.00
2022-11-10T18:47:19.623Z,13.43
2022-11-10T18:49:49.606Z,11.27
2022-11-10T18:52:16.484Z,7.00
2022-11-10T18:54:43.280Z,8.60
2022-11-10T18:57:13.099Z,12.67
2022-11-10T18:59:40.163Z,8.83
2022-11-10T19:02:07.026Z,7.93
2022-11-10T19:04:33.840Z,11.93
2022-11-10T19:07:00.748Z,7.27
2022-11-10T19:09:27.774Z,10.13
2022-11-10T19:11:54.583Z,11.00
2022-11-10T19:14:21.729Z,11.13
2022-11-10T19:16:48.923Z,9.20
2022-11-10T19:19:15.784Z,6.67
2022-11-10T19:21:48.535Z,10.53
2022-11-10T19:24:25.967Z,12.13
2022-11-10T19:26:55.098Z,8.93
2022-11-10T19:29:21.861Z,8.93
2022-11-10T19:31:49.879Z,9.77
2022-11-10T19:34:18.875Z,9.10
2022-11-10T19:36:46.372Z,10.63
2022-11-10T19:39:13.143Z,8.03
2022-11-10T19:41:40.106Z,14.17
2022-11-10T19:44:07.405Z,10.73
2022-11-10T19:46:36.758Z,10.35
2022-11-10T19:49:04.411Z,12.03
2022-11-10T19:51:31.307Z,9.77
2022-11-10T19:54:02.929Z,10.93
2022-11-10T19:56:32.260Z,13.57
2022-11-10T19:58:59.599Z,12.83
2022-11-10T20:01:26.680Z,18.13
2022-11-10T20:03:53.924Z,13.43
2022-11-10T20:06:23.114Z,15.03
2022-11-10T20:08:50.051Z,12.00
2022-11-10T20:11:23.249Z,17.57
2022-11-10T20:13:54.633Z,14.90
2022-11-10T20:16:22.352Z,16.07
2022-11-10T20:18:49.066Z,14.00
2022-11-10T20:21:17.917Z,8.43
2022-11-10T20:23:44.934Z,11.13
2022-11-10T20:26:17.216Z,9.37
2022-11-10T20:28:44.315Z,9.00
2022-11-10T20:31:16.490Z,9.90
2022-11-10T20:33:43.817Z,12.70
2022-11-10T20:36:18.914Z,14.13
2022-11-10T20:38:48.221Z,14.07
2022-11-10T20:41:17.715Z,10.57
2022-11-10T20:43:44.679Z,10.37
2022-11-10T20:46:40.238Z,8.10
2022-11-10T20:49:06.588Z,8.67
2022-11-10T20:51:33.430Z,11.10
2022-11-10T20:54:00.878Z,9.97
2022-11-10T20:56:29.901Z,8.70
2022-11-10T20:58:57.580Z,12.90
2022-11-10T21:01:24.966Z,12.53
2022-11-10T21:03:52.282Z,10.47
2022-11-10T21:06:19.079Z,15.70
2022-11-10T21:08:45.777Z,11.53
2022-11-10T21:11:32.888Z,13.80
2022-11-10T21:14:01.487Z,14.30
2022-11-10T21:16:28.633Z,11.57
2022-11-10T21:18:56.581Z,10.43
2022-11-10T21:21:34.510Z,11.73
2022-11-10T21:24:03.982Z,11.87
2022-11-10T21:26:31.697Z,9.50
2022-11-10T21:28:58.745Z,13.93
2022-11-10T21:31:25.470Z,10.73
2022-11-10T21:33:55.823Z,12.30
2022-11-10T21:36:23.013Z,15.80
2022-11-10T21:38:49.945Z,13.93
2022-11-10T21:41:16.697Z,13.57
2022-11-10T21:43:43.442Z,16.60
2022-11-10T21:46:10.162Z,12.27
2022-11-10T21:48:37.445Z,13.13
2022-11-10T21:51:06.319Z,20.57
2022-11-10T21:53:34.350Z,18.07
2022-11-10T21:56:03.358Z,19.87
2022-11-10T21:58:30.118Z,12.37
2022-11-10T22:01:04.111Z,17.20
2022-11-10T22:03:32.110Z,18.83
2022-11-10T22:06:05.636Z,15.77
2022-11-10T22:08:33.101Z,14.13
2022-11-10T22:11:18.508Z,16.53
2022-11-10T22:14:04.559Z,19.13
2022-11-10T22:16:55.631Z,13.73
2022-11-10T22:19:22.370Z,21.57
2022-11-10T22:21:49.275Z,19.87
2022-11-10T22:24:26.697Z,20.10
2022-11-10T22:26:56.045Z,12.53
2022-11-10T22:29:27.359Z,18.63
2022-11-10T22:31:58.933Z,16.13
2022-11-10T22:34:25.822Z,17.03
2022-11-10T22:36:54.661Z,14.17
2022-11-10T22:39:21.545Z,24.10
2022-11-10T22:42:06.929Z,13.23
2022-11-10T22:44:33.720Z,12.80
2022-11-10T22:47:00.499Z,15.93
2022-11-10T22:49:27.489Z,13.50
2022-11-10T22:51:55.361Z,13.90
2022-11-10T22:54:23.921Z,16.80
2022-11-10T22:56:51.530Z,18.30
2022-11-10T22:59:19.863Z,16.53
2022-11-10T23:01:46.902Z,14.63
2022-11-10T23:04:15.862Z,16.10
2022-11-10T23:06:42.975Z,19.53
2022-11-10T23:09:10.104Z,16.10
2022-11-10T23:11:36.852Z,17.90
2022-11-10T23:14:03.802Z,16.77
2022-11-10T23:16:34.163Z,19.20
2022-11-10T23:19:01.105Z,19.37
2022-11-10T23:21:29.790Z,17.90
2022-11-10T23:23:57.445Z,15.33
2022-11-10T23:26:27.594Z,17.83
2022-11-10T23:28:56.902Z,14.47
2022-11-10T23:31:28.212Z,20.27
2022-11-10T23:33:56.143Z,16.97
2022-11-10T23:36:31.959Z,16.00
2022-11-10T23:38:58.758Z,16.40
2022-11-10T23:41:28.404Z,16.80
2022-11-10T23:43:55.277Z,21.97
2022-11-10T23:46:22.168Z,26.47
2022-11-10T23:48:49.006Z,15.07
2022-11-10T23:51:16.655Z,19.80
2022-11-10T23:53:43.554Z,23.27
2022-11-10T23:56:14.127Z,23.23
2022-11-10T23:58:41.338Z,16.63
